PWSweather.com
Personal Weather Stations
Station Observations
WD4JKH
Forsyth, GA 31029

Forsyth, GA 31029

Lat: 33.033225, Lon: -83.927995

Elevation: 709

Station Type: Davis Vantage VUE

High Low Average
Temperature 45.5°F7.5°C 36.9°F2.7°C 41.3°F5.2°C
Dew Point 36.1°F2.3°C 24.0°F-4.4°C 31.1°F-0.5°C
Winds 10.6 mph 17.1 kmh 1.8 mph 2.9 kmh 5.0 mph NE8.0 kmh NE
Wind Gusts 17.0 mph27.4 kmh 6.0 mph9.7 kmh 11.0 mph17.7 kmh
Humidity 95% 44% 69%
Pressure 30.57 in1035.2 mb 30.36 in1028.1 mb -
Precipitation 0.03 in0.8 mm - -
Hour Temp Dew Point Humidity Winds Wind Gusts Pressure Precip Precip Rate Daily Precip Total
12:04 AM 45.5°F7.5°C 24.7°F-4.1°C 44% 5.1 mph NE8.2 kmh NE 11.0 mph17.7 kmh 30.57 in1035.2 mb 0.00 in0.0 mm 0.00 in0.0 mm 0.00 in0.0 mm
12:09 AM 45.3°F7.4°C 24.6°F-4.1°C 44% 5.5 mph NE8.9 kmh NE 11.0 mph17.7 kmh 30.57 in1035.2 mb 0.00 in0.0 mm 0.00 in0.0 mm 0.00 in0.0 mm
12:14 AM 45.2°F7.3°C 24.4°F-4.2°C 44% 6.5 mph NE10.5 kmh NE 12.0 mph19.3 kmh 30.56 in1034.9 mb 0.00 in0.0 mm 0.00 in0.0 mm 0.00 in0.0 mm
12:19 AM 45.1°F7.3°C 24.3°F-4.3°C 44% 5.6 mph ENE9.0 kmh ENE 12.0 mph19.3 kmh 30.56 in1034.9 mb 0.00 in0.0 mm 0.00 in0.0 mm 0.00 in0.0 mm
12:24 AM 45.0°F7.2°C 24.8°F-4.0°C 45% 5.3 mph NE8.5 kmh NE 12.0 mph19.3 kmh 30.56 in1034.9 mb 0.00 in0.0 mm 0.00 in0.0 mm 0.00 in0.0 mm
12:29 AM 44.9°F7.2°C 24.8°F-4.0°C 45% 7.4 mph NE11.9 kmh NE 13.0 mph20.9 kmh 30.56 in1034.9 mb 0.00 in0.0 mm 0.00 in0.0 mm 0.00 in0.0 mm
12:34 AM 44.9°F7.2°C 24.7°F-4.1°C 45% 5.5 mph NE8.9 kmh NE 13.0 mph20.9 kmh 30.57 in1035.2 mb 0.00 in0.0 mm 0.00 in0.0 mm 0.00 in0.0 mm
12:39 AM 44.8°F7.1°C 24.6°F-4.1°C 45% 5.3 mph ENE8.5 kmh ENE 13.0 mph20.9 kmh 30.57 in1035.2 mb 0.00 in0.0 mm 0.00 in0.0 mm 0.00 in0.0 mm
12:44 AM 44.7°F7.1°C 24.5°F-4.2°C 45% 7.3 mph NE11.7 kmh NE 13.0 mph20.9 kmh 30.56 in1034.9 mb 0.00 in0.0 mm 0.00 in0.0 mm 0.00 in0.0 mm
12:49 AM 44.6°F7.0°C 24.4°F-4.2°C 45% 4.9 mph NE7.9 kmh NE 12.0 mph19.3 kmh 30.56 in1034.9 mb 0.00 in0.0 mm 0.00 in0.0 mm 0.00 in0.0 mm
12:54 AM 44.5°F6.9°C 24.3°F-4.3°C 45% 4.2 mph NE6.8 kmh NE 12.0 mph19.3 kmh 30.56 in1034.9 mb 0.00 in0.0 mm 0.00 in0.0 mm 0.00 in0.0 mm
12:59 AM 44.5°F6.9°C 24.3°F-4.3°C 45% 5.2 mph NE8.4 kmh NE 12.0 mph19.3 kmh 30.56 in1034.9 mb 0.00 in0.0 mm 0.00 in0.0 mm 0.00 in0.0 mm
01:04 AM 44.4°F6.9°C 24.3°F-4.3°C 45% 4.8 mph NE7.7 kmh NE 11.0 mph17.7 kmh 30.56 in1034.9 mb 0.00 in0.0 mm 0.00 in0.0 mm 0.00 in0.0 mm
01:09 AM 44.1°F6.7°C 24.5°F-4.2°C 46% 5.7 mph NE9.2 kmh NE 11.0 mph17.7 kmh 30.57 in1035.2 mb 0.00 in0.0 mm 0.00 in0.0 mm 0.00 in0.0 mm
01:14 AM 44.0°F6.7°C 24.4°F-4.2°C 46% 4.2 mph NE6.8 kmh NE 11.0 mph17.7 kmh 30.56 in1034.9 mb 0.00 in0.0 mm 0.00 in0.0 mm 0.00 in0.0 mm
01:19 AM 43.8°F6.6°C 24.2°F-4.3°C 46% 4.9 mph NE7.9 kmh NE 11.0 mph17.7 kmh 30.56 in1034.9 mb 0.00 in0.0 mm 0.00 in0.0 mm 0.00 in0.0 mm
01:24 AM 43.7°F6.5°C 24.2°F-4.3°C 46% 6.0 mph NE9.7 kmh NE 11.0 mph17.7 kmh 30.56 in1034.9 mb 0.00 in0.0 mm 0.00 in0.0 mm 0.00 in0.0 mm
01:29 AM 43.7°F6.5°C 24.2°F-4.3°C 46% 4.7 mph NE7.6 kmh NE 11.0 mph17.7 kmh 30.56 in1034.9 mb 0.00 in0.0 mm 0.00 in0.0 mm 0.00 in0.0 mm
01:34 AM 43.6°F6.4°C 24.1°F-4.4°C 46% 4.1 mph NE6.6 kmh NE 11.0 mph17.7 kmh 30.56 in1034.9 mb 0.00 in0.0 mm 0.00 in0.0 mm 0.00 in0.0 mm
01:39 AM 43.5°F6.4°C 24.0°F-4.4°C 46% 5.3 mph NE8.5 kmh NE 11.0 mph17.7 kmh 30.56 in1034.9 mb 0.00 in0.0 mm 0.00 in0.0 mm 0.00 in0.0 mm
01:44 AM 43.4°F6.3°C 24.0°F-4.4°C 46% 5.5 mph NE8.9 kmh NE 11.0 mph17.7 kmh 30.56 in1034.9 mb 0.00 in0.0 mm 0.00 in0.0 mm 0.00 in0.0 mm
01:49 AM 43.2°F6.2°C 24.2°F-4.3°C 47% 5.0 mph NE8.0 kmh NE 10.0 mph16.1 kmh 30.56 in1034.9 mb 0.00 in0.0 mm 0.00 in0.0 mm 0.00 in0.0 mm
01:54 AM 42.9°F6.1°C 24.0°F-4.4°C 47% 4.6 mph NE7.4 kmh NE 10.0 mph16.1 kmh 30.56 in1034.9 mb 0.00 in0.0 mm 0.00 in0.0 mm 0.00 in0.0 mm
01:59 AM 42.7°F5.9°C 24.3°F-4.3°C 48% 5.5 mph NE8.9 kmh NE 9.0 mph14.5 kmh 30.56 in1034.9 mb 0.00 in0.0 mm 0.00 in0.0 mm 0.00 in0.0 mm
02:04 AM 42.5°F5.8°C 24.1°F-4.4°C 48% 4.9 mph NE7.9 kmh NE 9.0 mph14.5 kmh 30.56 in1034.9 mb 0.00 in0.0 mm 0.00 in0.0 mm 0.00 in0.0 mm
02:09 AM 42.3°F5.7°C 24.4°F-4.2°C 49% 5.3 mph NE8.5 kmh NE 10.0 mph16.1 kmh 30.56 in1034.9 mb 0.00 in0.0 mm 0.00 in0.0 mm 0.00 in0.0 mm
02:14 AM 42.1°F5.6°C 24.2°F-4.3°C 49% 7.1 mph NE11.4 kmh NE 10.0 mph16.1 kmh 30.56 in1034.9 mb 0.00 in0.0 mm 0.00 in0.0 mm 0.00 in0.0 mm
02:19 AM 41.9°F5.5°C 24.6°F-4.1°C 50% 5.3 mph NE8.5 kmh NE 10.0 mph16.1 kmh 30.56 in1034.9 mb 0.00 in0.0 mm 0.00 in0.0 mm 0.00 in0.0 mm
02:24 AM 41.9°F5.5°C 24.6°F-4.1°C 50% 5.1 mph NE8.2 kmh NE 10.0 mph16.1 kmh 30.56 in1034.9 mb 0.00 in0.0 mm 0.00 in0.0 mm 0.00 in0.0 mm
02:29 AM 41.9°F5.5°C 24.6°F-4.1°C 50% 4.3 mph NE6.9 kmh NE 11.0 mph17.7 kmh 30.56 in1034.9 mb 0.00 in0.0 mm 0.00 in0.0 mm 0.00 in0.0 mm
02:34 AM 41.9°F5.5°C 24.6°F-4.1°C 50% 4.2 mph NE6.8 kmh NE 11.0 mph17.7 kmh 30.55 in1034.5 mb 0.00 in0.0 mm 0.00 in0.0 mm 0.00 in0.0 mm
02:39 AM 41.9°F5.5°C 24.6°F-4.1°C 50% 4.0 mph ENE6.4 kmh ENE 11.0 mph17.7 kmh 30.55 in1034.5 mb 0.00 in0.0 mm 0.00 in0.0 mm 0.00 in0.0 mm
02:44 AM 42.0°F5.6°C 24.7°F-4.1°C 50% 3.4 mph NE5.5 kmh NE 11.0 mph17.7 kmh 30.55 in1034.5 mb 0.00 in0.0 mm 0.00 in0.0 mm 0.00 in0.0 mm
02:48 AM 42.0°F5.6°C 24.7°F-4.1°C 50% 5.1 mph NE8.2 kmh NE 10.0 mph16.1 kmh 30.56 in1034.9 mb 0.00 in0.0 mm 0.00 in0.0 mm 0.00 in0.0 mm
02:53 AM 42.0°F5.6°C 24.7°F-4.1°C 50% 4.3 mph NE6.9 kmh NE 10.0 mph16.1 kmh 30.56 in1034.9 mb 0.00 in0.0 mm 0.00 in0.0 mm 0.00 in0.0 mm
02:58 AM 42.0°F5.6°C 25.1°F-3.8°C 51% 4.1 mph NE6.6 kmh NE 10.0 mph16.1 kmh 30.55 in1034.5 mb 0.00 in0.0 mm 0.00 in0.0 mm 0.00 in0.0 mm
03:03 AM 42.1°F5.6°C 25.2°F-3.8°C 51% 3.8 mph NE6.1 kmh NE 9.0 mph14.5 kmh 30.55 in1034.5 mb 0.00 in0.0 mm 0.00 in0.0 mm 0.00 in0.0 mm
03:08 AM 42.2°F5.7°C 25.3°F-3.7°C 51% 4.1 mph NE6.6 kmh NE 8.0 mph12.9 kmh 30.55 in1034.5 mb 0.00 in0.0 mm 0.00 in0.0 mm 0.00 in0.0 mm
03:13 AM 42.2°F5.7°C 25.3°F-3.7°C 51% 3.7 mph NE6.0 kmh NE 8.0 mph12.9 kmh 30.55 in1034.5 mb 0.00 in0.0 mm 0.00 in0.0 mm 0.00 in0.0 mm
03:18 AM 42.2°F5.7°C 25.3°F-3.7°C 51% 5.7 mph NE9.2 kmh NE 9.0 mph14.5 kmh 30.55 in1034.5 mb 0.00 in0.0 mm 0.00 in0.0 mm 0.00 in0.0 mm
03:23 AM 42.3°F5.7°C 25.4°F-3.7°C 51% 4.0 mph NE6.4 kmh NE 9.0 mph14.5 kmh 30.55 in1034.5 mb 0.00 in0.0 mm 0.00 in0.0 mm 0.00 in0.0 mm
03:28 AM 42.4°F5.8°C 25.5°F-3.6°C 51% 4.8 mph NE7.7 kmh NE 9.0 mph14.5 kmh 30.55 in1034.5 mb 0.00 in0.0 mm 0.00 in0.0 mm 0.00 in0.0 mm
03:33 AM 42.4°F5.8°C 25.5°F-3.6°C 51% 6.2 mph NE10.0 kmh NE 12.0 mph19.3 kmh 30.55 in1034.5 mb 0.00 in0.0 mm 0.00 in0.0 mm 0.00 in0.0 mm
03:38 AM 42.4°F5.8°C 25.5°F-3.6°C 51% 5.9 mph NE9.5 kmh NE 12.0 mph19.3 kmh 30.55 in1034.5 mb 0.00 in0.0 mm 0.00 in0.0 mm 0.00 in0.0 mm
03:43 AM 42.4°F5.8°C 25.5°F-3.6°C 51% 5.4 mph NE8.7 kmh NE 12.0 mph19.3 kmh 30.55 in1034.5 mb 0.00 in0.0 mm 0.00 in0.0 mm 0.00 in0.0 mm
03:48 AM 42.3°F5.7°C 25.9°F-3.4°C 52% 4.4 mph NE7.1 kmh NE 12.0 mph19.3 kmh 30.54 in1034.2 mb 0.00 in0.0 mm 0.00 in0.0 mm 0.00 in0.0 mm
03:53 AM 42.3°F5.7°C 25.9°F-3.4°C 52% 3.9 mph NE6.3 kmh NE 11.0 mph17.7 kmh 30.54 in1034.2 mb 0.00 in0.0 mm 0.00 in0.0 mm 0.00 in0.0 mm
03:58 AM 42.3°F5.7°C 25.4°F-3.7°C 51% 5.9 mph NE9.5 kmh NE 11.0 mph17.7 kmh 30.54 in1034.2 mb 0.00 in0.0 mm 0.00 in0.0 mm 0.00 in0.0 mm
04:03 AM 42.4°F5.8°C 26.0°F-3.3°C 52% 5.7 mph NE9.2 kmh NE 11.0 mph17.7 kmh 30.54 in1034.2 mb 0.00 in0.0 mm 0.00 in0.0 mm 0.00 in0.0 mm
04:08 AM 42.3°F5.7°C 25.9°F-3.4°C 52% 4.2 mph NE6.8 kmh NE 11.0 mph17.7 kmh 30.54 in1034.2 mb 0.00 in0.0 mm 0.00 in0.0 mm 0.00 in0.0 mm
04:13 AM 42.3°F5.7°C 25.9°F-3.4°C 52% 4.6 mph NE7.4 kmh NE 11.0 mph17.7 kmh 30.53 in1033.9 mb 0.00 in0.0 mm 0.00 in0.0 mm 0.00 in0.0 mm
04:18 AM 42.3°F5.7°C 25.9°F-3.4°C 52% 5.1 mph NE8.2 kmh NE 10.0 mph16.1 kmh 30.54 in1034.2 mb 0.00 in0.0 mm 0.00 in0.0 mm 0.00 in0.0 mm
04:23 AM 42.4°F5.8°C 26.0°F-3.3°C 52% 4.2 mph NE6.8 kmh NE 10.0 mph16.1 kmh 30.54 in1034.2 mb 0.00 in0.0 mm 0.00 in0.0 mm 0.00 in0.0 mm
04:28 AM 42.5°F5.8°C 26.1°F-3.3°C 52% 5.7 mph ENE9.2 kmh ENE 10.0 mph16.1 kmh 30.54 in1034.2 mb 0.00 in0.0 mm 0.00 in0.0 mm 0.00 in0.0 mm
04:33 AM 42.6°F5.9°C 26.2°F-3.2°C 52% 4.4 mph NE7.1 kmh NE 10.0 mph16.1 kmh 30.54 in1034.2 mb 0.00 in0.0 mm 0.00 in0.0 mm 0.00 in0.0 mm
04:38 AM 42.6°F5.9°C 26.2°F-3.2°C 52% 4.5 mph NE7.2 kmh NE 10.0 mph16.1 kmh 30.54 in1034.2 mb 0.00 in0.0 mm 0.00 in0.0 mm 0.00 in0.0 mm
04:43 AM 42.6°F5.9°C 26.2°F-3.2°C 52% 5.3 mph NE8.5 kmh NE 10.0 mph16.1 kmh 30.54 in1034.2 mb 0.00 in0.0 mm 0.00 in0.0 mm 0.00 in0.0 mm
04:48 AM 42.7°F5.9°C 26.3°F-3.2°C 52% 4.2 mph NE6.8 kmh NE 13.0 mph20.9 kmh 30.53 in1033.9 mb 0.00 in0.0 mm 0.00 in0.0 mm 0.00 in0.0 mm
04:53 AM 42.8°F6.0°C 25.9°F-3.4°C 51% 6.1 mph NE9.8 kmh NE 13.0 mph20.9 kmh 30.53 in1033.9 mb 0.00 in0.0 mm 0.00 in0.0 mm 0.00 in0.0 mm
04:58 AM 42.8°F6.0°C 26.4°F-3.1°C 52% 5.5 mph NE8.9 kmh NE 13.0 mph20.9 kmh 30.53 in1033.9 mb 0.00 in0.0 mm 0.00 in0.0 mm 0.00 in0.0 mm
05:03 AM 42.8°F6.0°C 25.9°F-3.4°C 51% 5.0 mph NE8.0 kmh NE 13.0 mph20.9 kmh 30.54 in1034.2 mb 0.00 in0.0 mm 0.00 in0.0 mm 0.00 in0.0 mm
05:08 AM 42.7°F5.9°C 26.3°F-3.2°C 52% 6.6 mph NE10.6 kmh NE 12.0 mph19.3 kmh 30.54 in1034.2 mb 0.00 in0.0 mm 0.00 in0.0 mm 0.00 in0.0 mm
05:13 AM 42.6°F5.9°C 26.2°F-3.2°C 52% 4.9 mph NE7.9 kmh NE 11.0 mph17.7 kmh 30.55 in1034.5 mb 0.00 in0.0 mm 0.00 in0.0 mm 0.00 in0.0 mm
05:18 AM 42.5°F5.8°C 26.6°F-3.0°C 53% 6.3 mph NE10.1 kmh NE 11.0 mph17.7 kmh 30.54 in1034.2 mb 0.00 in0.0 mm 0.00 in0.0 mm 0.00 in0.0 mm
05:23 AM 42.4°F5.8°C 26.5°F-3.1°C 53% 6.9 mph NE11.1 kmh NE 11.0 mph17.7 kmh 30.54 in1034.2 mb 0.00 in0.0 mm 0.00 in0.0 mm 0.00 in0.0 mm
05:28 AM 42.3°F5.7°C 26.4°F-3.1°C 53% 7.5 mph NE12.1 kmh NE 13.0 mph20.9 kmh 30.55 in1034.5 mb 0.00 in0.0 mm 0.00 in0.0 mm 0.00 in0.0 mm
05:33 AM 42.3°F5.7°C 26.4°F-3.1°C 53% 6.4 mph NE10.3 kmh NE 13.0 mph20.9 kmh 30.55 in1034.5 mb 0.00 in0.0 mm 0.00 in0.0 mm 0.00 in0.0 mm
05:38 AM 42.3°F5.7°C 26.4°F-3.1°C 53% 4.8 mph NE7.7 kmh NE 13.0 mph20.9 kmh 30.55 in1034.5 mb 0.00 in0.0 mm 0.00 in0.0 mm 0.00 in0.0 mm
05:43 AM 42.3°F5.7°C 26.4°F-3.1°C 53% 5.6 mph NE9.0 kmh NE 13.0 mph20.9 kmh 30.54 in1034.2 mb 0.00 in0.0 mm 0.00 in0.0 mm 0.00 in0.0 mm
05:48 AM 42.4°F5.8°C 26.0°F-3.3°C 52% 7.7 mph NE12.4 kmh NE 13.0 mph20.9 kmh 30.54 in1034.2 mb 0.00 in0.0 mm 0.00 in0.0 mm 0.00 in0.0 mm
05:53 AM 42.4°F5.8°C 26.5°F-3.1°C 53% 5.7 mph NE9.2 kmh NE 13.0 mph20.9 kmh 30.54 in1034.2 mb 0.00 in0.0 mm 0.00 in0.0 mm 0.00 in0.0 mm
05:58 AM 42.5°F5.8°C 26.1°F-3.3°C 52% 6.1 mph ENE9.8 kmh ENE 13.0 mph20.9 kmh 30.54 in1034.2 mb 0.00 in0.0 mm 0.00 in0.0 mm 0.00 in0.0 mm
06:03 AM 42.6°F5.9°C 25.7°F-3.5°C 51% 6.4 mph ENE10.3 kmh ENE 15.0 mph24.1 kmh 30.54 in1034.2 mb 0.00 in0.0 mm 0.00 in0.0 mm 0.00 in0.0 mm
06:08 AM 42.7°F5.9°C 25.8°F-3.4°C 51% 6.8 mph NE10.9 kmh NE 15.0 mph24.1 kmh 30.54 in1034.2 mb 0.00 in0.0 mm 0.00 in0.0 mm 0.00 in0.0 mm
06:13 AM 42.8°F6.0°C 25.9°F-3.4°C 51% 5.7 mph ENE9.2 kmh ENE 15.0 mph24.1 kmh 30.54 in1034.2 mb 0.00 in0.0 mm 0.00 in0.0 mm 0.00 in0.0 mm
06:18 AM 42.8°F6.0°C 25.9°F-3.4°C 51% 6.9 mph NE11.1 kmh NE 15.0 mph24.1 kmh 30.54 in1034.2 mb 0.00 in0.0 mm 0.00 in0.0 mm 0.00 in0.0 mm
06:23 AM 42.8°F6.0°C 25.9°F-3.4°C 51% 7.2 mph NE11.6 kmh NE 17.0 mph27.4 kmh 30.55 in1034.5 mb 0.00 in0.0 mm 0.00 in0.0 mm 0.00 in0.0 mm
06:28 AM 42.8°F6.0°C 25.9°F-3.4°C 51% 6.6 mph ENE10.6 kmh ENE 17.0 mph27.4 kmh 30.55 in1034.5 mb 0.00 in0.0 mm 0.00 in0.0 mm 0.00 in0.0 mm
06:33 AM 42.8°F6.0°C 25.9°F-3.4°C 51% 10.4 mph ENE16.7 kmh ENE 17.0 mph27.4 kmh 30.55 in1034.5 mb 0.00 in0.0 mm 0.00 in0.0 mm 0.00 in0.0 mm
06:38 AM 42.8°F6.0°C 25.9°F-3.4°C 51% 9.6 mph ENE15.4 kmh ENE 17.0 mph27.4 kmh 30.55 in1034.5 mb 0.00 in0.0 mm 0.00 in0.0 mm 0.00 in0.0 mm
06:43 AM 42.8°F6.0°C 25.9°F-3.4°C 51% 6.1 mph ENE9.8 kmh ENE 17.0 mph27.4 kmh 30.54 in1034.2 mb 0.00 in0.0 mm 0.00 in0.0 mm 0.00 in0.0 mm
06:48 AM 42.8°F6.0°C 26.4°F-3.1°C 52% 7.9 mph ENE12.7 kmh ENE 17.0 mph27.4 kmh 30.54 in1034.2 mb 0.00 in0.0 mm 0.00 in0.0 mm 0.00 in0.0 mm
06:53 AM 42.7°F5.9°C 26.3°F-3.2°C 52% 4.2 mph NE6.8 kmh NE 14.0 mph22.5 kmh 30.54 in1034.2 mb 0.00 in0.0 mm 0.00 in0.0 mm 0.00 in0.0 mm
06:58 AM 42.7°F5.9°C 26.3°F-3.2°C 52% 6.0 mph ENE9.7 kmh ENE 14.0 mph22.5 kmh 30.54 in1034.2 mb 0.00 in0.0 mm 0.00 in0.0 mm 0.00 in0.0 mm
07:03 AM 42.7°F5.9°C 26.7°F-2.9°C 53% 4.0 mph ENE6.4 kmh ENE 14.0 mph22.5 kmh 30.54 in1034.2 mb 0.00 in0.0 mm 0.00 in0.0 mm 0.00 in0.0 mm
07:08 AM 42.7°F5.9°C 26.7°F-2.9°C 53% 5.8 mph ENE9.3 kmh ENE 12.0 mph19.3 kmh 30.54 in1034.2 mb 0.00 in0.0 mm 0.00 in0.0 mm 0.00 in0.0 mm
07:13 AM 42.7°F5.9°C 26.7°F-2.9°C 53% 4.6 mph ENE7.4 kmh ENE 12.0 mph19.3 kmh 30.55 in1034.5 mb 0.00 in0.0 mm 0.00 in0.0 mm 0.00 in0.0 mm
07:18 AM 42.7°F5.9°C 27.2°F-2.7°C 54% 4.1 mph E6.6 kmh E 12.0 mph19.3 kmh 30.55 in1034.5 mb 0.00 in0.0 mm 0.00 in0.0 mm 0.00 in0.0 mm
07:23 AM 42.7°F5.9°C 27.2°F-2.7°C 54% 8.0 mph E12.9 kmh E 12.0 mph19.3 kmh 30.54 in1034.2 mb 0.00 in0.0 mm 0.00 in0.0 mm 0.00 in0.0 mm
07:28 AM 42.6°F5.9°C 27.6°F-2.4°C 55% 5.3 mph E8.5 kmh E 13.0 mph20.9 kmh 30.54 in1034.2 mb 0.00 in0.0 mm 0.00 in0.0 mm 0.00 in0.0 mm
07:33 AM 42.6°F5.9°C 27.5°F-2.5°C 55% 10.4 mph ENE16.7 kmh ENE 17.0 mph27.4 kmh 30.54 in1034.2 mb 0.00 in0.0 mm 0.00 in0.0 mm 0.00 in0.0 mm
07:38 AM 42.5°F5.8°C 27.5°F-2.5°C 55% 4.2 mph ENE6.8 kmh ENE 17.0 mph27.4 kmh 30.54 in1034.2 mb 0.00 in0.0 mm 0.00 in0.0 mm 0.00 in0.0 mm
07:43 AM 42.5°F5.8°C 27.5°F-2.5°C 55% 8.1 mph E13.0 kmh E 17.0 mph27.4 kmh 30.54 in1034.2 mb 0.00 in0.0 mm 0.00 in0.0 mm 0.00 in0.0 mm
07:47 AM 42.5°F5.8°C 27.9°F-2.3°C 56% 3.1 mph E5.0 kmh E 17.0 mph27.4 kmh 30.54 in1034.2 mb 0.00 in0.0 mm 0.00 in0.0 mm 0.00 in0.0 mm
07:52 AM 42.5°F5.8°C 27.9°F-2.3°C 56% 5.7 mph ENE9.2 kmh ENE 16.0 mph25.7 kmh 30.54 in1034.2 mb 0.00 in0.0 mm 0.00 in0.0 mm 0.00 in0.0 mm
07:57 AM 42.5°F5.8°C 27.9°F-2.3°C 56% 3.2 mph ENE5.1 kmh ENE 16.0 mph25.7 kmh 30.55 in1034.5 mb 0.00 in0.0 mm 0.00 in0.0 mm 0.00 in0.0 mm
08:02 AM 42.5°F5.8°C 27.9°F-2.3°C 56% 2.7 mph ENE4.3 kmh ENE 12.0 mph19.3 kmh 30.55 in1034.5 mb 0.00 in0.0 mm 0.00 in0.0 mm 0.00 in0.0 mm
08:07 AM 42.5°F5.8°C 28.4°F-2.0°C 57% 3.1 mph E5.0 kmh E 11.0 mph17.7 kmh 30.55 in1034.5 mb 0.00 in0.0 mm 0.00 in0.0 mm 0.00 in0.0 mm
08:12 AM 42.5°F5.8°C 28.4°F-2.0°C 57% 4.6 mph ENE7.4 kmh ENE 9.0 mph14.5 kmh 30.55 in1034.5 mb 0.00 in0.0 mm 0.00 in0.0 mm 0.00 in0.0 mm
08:17 AM 42.5°F5.8°C 28.3°F-2.1°C 57% 3.2 mph ENE5.1 kmh ENE 9.0 mph14.5 kmh 30.55 in1034.5 mb 0.00 in0.0 mm 0.00 in0.0 mm 0.00 in0.0 mm
08:22 AM 42.6°F5.9°C 28.4°F-2.0°C 57% 8.4 mph ENE13.5 kmh ENE 12.0 mph19.3 kmh 30.55 in1034.5 mb 0.00 in0.0 mm 0.00 in0.0 mm 0.00 in0.0 mm
08:27 AM 42.6°F5.9°C 28.9°F-1.7°C 58% 6.1 mph ENE9.8 kmh ENE 12.0 mph19.3 kmh 30.55 in1034.5 mb 0.00 in0.0 mm 0.00 in0.0 mm 0.00 in0.0 mm
08:32 AM 42.6°F5.9°C 28.5°F-1.9°C 57% 7.6 mph ENE12.2 kmh ENE 12.0 mph19.3 kmh 30.55 in1034.5 mb 0.00 in0.0 mm 0.00 in0.0 mm 0.00 in0.0 mm
08:37 AM 42.7°F5.9°C 28.9°F-1.7°C 58% 5.8 mph ENE9.3 kmh ENE 12.0 mph19.3 kmh 30.54 in1034.2 mb 0.00 in0.0 mm 0.00 in0.0 mm 0.00 in0.0 mm
08:42 AM 42.8°F6.0°C 29.0°F-1.7°C 58% 3.9 mph NE6.3 kmh NE 11.0 mph17.7 kmh 30.54 in1034.2 mb 0.00 in0.0 mm 0.00 in0.0 mm 0.00 in0.0 mm
08:47 AM 42.8°F6.0°C 29.1°F-1.6°C 58% 3.9 mph ENE6.3 kmh ENE 10.0 mph16.1 kmh 30.54 in1034.2 mb 0.00 in0.0 mm 0.00 in0.0 mm 0.00 in0.0 mm
08:52 AM 42.8°F6.0°C 29.5°F-1.4°C 59% 3.8 mph ENE6.1 kmh ENE 10.0 mph16.1 kmh 30.55 in1034.5 mb 0.00 in0.0 mm 0.00 in0.0 mm 0.00 in0.0 mm
08:58 AM 42.9°F6.1°C 29.2°F-1.6°C 58% 3.3 mph ENE5.3 kmh ENE 12.0 mph19.3 kmh 30.55 in1034.5 mb 0.00 in0.0 mm 0.00 in0.0 mm 0.00 in0.0 mm
09:02 AM 42.8°F6.0°C 29.1°F-1.6°C 58% 7.1 mph NE11.4 kmh NE 12.0 mph19.3 kmh 30.55 in1034.5 mb 0.00 in0.0 mm 0.00 in0.0 mm 0.00 in0.0 mm
09:07 AM 42.8°F6.0°C 29.5°F-1.4°C 59% 2.9 mph ENE4.7 kmh ENE 12.0 mph19.3 kmh 30.55 in1034.5 mb 0.00 in0.0 mm 0.00 in0.0 mm 0.00 in0.0 mm
09:12 AM 42.7°F5.9°C 29.0°F-1.7°C 58% 8.5 mph ENE13.7 kmh ENE 12.0 mph19.3 kmh 30.56 in1034.9 mb 0.00 in0.0 mm 0.00 in0.0 mm 0.00 in0.0 mm
09:17 AM 42.7°F5.9°C 29.4°F-1.4°C 59% 5.4 mph NE8.7 kmh NE 12.0 mph19.3 kmh 30.56 in1034.9 mb 0.00 in0.0 mm 0.00 in0.0 mm 0.00 in0.0 mm
09:23 AM 42.6°F5.9°C 29.3°F-1.5°C 59% 5.2 mph NE8.4 kmh NE 12.0 mph19.3 kmh 30.56 in1034.9 mb 0.00 in0.0 mm 0.00 in0.0 mm 0.00 in0.0 mm
09:28 AM 42.6°F5.9°C 29.8°F-1.2°C 60% 4.6 mph NE7.4 kmh NE 12.0 mph19.3 kmh 30.55 in1034.5 mb 0.00 in0.0 mm 0.00 in0.0 mm 0.00 in0.0 mm
09:33 AM 42.6°F5.9°C 29.3°F-1.5°C 59% 6.4 mph NE10.3 kmh NE 12.0 mph19.3 kmh 30.55 in1034.5 mb 0.00 in0.0 mm 0.00 in0.0 mm 0.00 in0.0 mm
09:38 AM 42.6°F5.9°C 29.3°F-1.5°C 59% 6.8 mph NE10.9 kmh NE 12.0 mph19.3 kmh 30.56 in1034.9 mb 0.00 in0.0 mm 0.00 in0.0 mm 0.00 in0.0 mm
09:42 AM 42.5°F5.8°C 29.2°F-1.6°C 59% 8.4 mph NE13.5 kmh NE 14.0 mph22.5 kmh 30.56 in1034.9 mb 0.00 in0.0 mm 0.00 in0.0 mm 0.00 in0.0 mm
09:48 AM 42.4°F5.8°C 29.6°F-1.3°C 60% 7.0 mph NE11.3 kmh NE 16.0 mph25.7 kmh 30.57 in1035.2 mb 0.00 in0.0 mm 0.00 in0.0 mm 0.00 in0.0 mm
09:52 AM 42.4°F5.8°C 29.5°F-1.4°C 60% 7.4 mph NE11.9 kmh NE 16.0 mph25.7 kmh 30.57 in1035.2 mb 0.00 in0.0 mm 0.00 in0.0 mm 0.00 in0.0 mm
09:58 AM 42.2°F5.7°C 29.8°F-1.2°C 61% 9.7 mph NE15.6 kmh NE 16.0 mph25.7 kmh 30.57 in1035.2 mb 0.00 in0.0 mm 0.00 in0.0 mm 0.00 in0.0 mm
10:03 AM 42.1°F5.6°C 29.7°F-1.3°C 61% 7.9 mph NE12.7 kmh NE 17.0 mph27.4 kmh 30.56 in1034.9 mb 0.00 in0.0 mm 0.00 in0.0 mm 0.00 in0.0 mm
10:08 AM 42.1°F5.6°C 30.1°F-1.1°C 62% 8.7 mph NE14.0 kmh NE 17.0 mph27.4 kmh 30.56 in1034.9 mb 0.00 in0.0 mm 0.00 in0.0 mm 0.00 in0.0 mm
10:13 AM 41.9°F5.5°C 30.3°F-0.9°C 63% 10.6 mph NE17.1 kmh NE 17.0 mph27.4 kmh 30.56 in1034.9 mb 0.00 in0.0 mm 0.00 in0.0 mm 0.00 in0.0 mm
10:18 AM 41.6°F5.3°C 30.4°F-0.9°C 64% 9.9 mph ENE15.9 kmh ENE 17.0 mph27.4 kmh 30.56 in1034.9 mb 0.00 in0.0 mm 0.00 in0.0 mm 0.00 in0.0 mm
10:23 AM 41.3°F5.2°C 30.5°F-0.8°C 65% 9.2 mph ENE14.8 kmh ENE 16.0 mph25.7 kmh 30.56 in1034.9 mb 0.00 in0.0 mm 0.00 in0.0 mm 0.00 in0.0 mm
10:28 AM 41.2°F5.1°C 30.8°F-0.7°C 66% 6.4 mph NE10.3 kmh NE 16.0 mph25.7 kmh 30.56 in1034.9 mb 0.00 in0.0 mm 0.00 in0.0 mm 0.00 in0.0 mm
10:33 AM 41.0°F5.0°C 31.3°F-0.4°C 68% 6.2 mph ENE10.0 kmh ENE 16.0 mph25.7 kmh 30.56 in1034.9 mb 0.00 in0.0 mm 0.00 in0.0 mm 0.00 in0.0 mm
10:38 AM 40.8°F4.9°C 31.1°F-0.5°C 68% 9.6 mph ENE15.4 kmh ENE 15.0 mph24.1 kmh 30.56 in1034.9 mb 0.00 in0.0 mm 0.00 in0.0 mm 0.00 in0.0 mm
10:43 AM 40.8°F4.9°C 31.5°F-0.3°C 69% 4.8 mph ENE7.7 kmh ENE 15.0 mph24.1 kmh 30.56 in1034.9 mb 0.00 in0.0 mm 0.00 in0.0 mm 0.00 in0.0 mm
10:48 AM 40.8°F4.9°C 31.5°F-0.3°C 69% 5.3 mph NE8.5 kmh NE 15.0 mph24.1 kmh 30.56 in1034.9 mb 0.00 in0.0 mm 0.00 in0.0 mm 0.00 in0.0 mm
10:53 AM 40.5°F4.7°C 31.6°F-0.2°C 70% 7.3 mph NE11.7 kmh NE 17.0 mph27.4 kmh 30.56 in1034.9 mb 0.00 in0.0 mm 0.00 in0.0 mm 0.00 in0.0 mm
10:58 AM 40.4°F4.7°C 31.7°F-0.2°C 71% 5.7 mph NE9.2 kmh NE 17.0 mph27.4 kmh 30.56 in1034.9 mb 0.00 in0.0 mm 0.00 in0.0 mm 0.00 in0.0 mm
11:03 AM 40.5°F4.7°C 31.9°F-0.1°C 71% 8.1 mph NE13.0 kmh NE 17.0 mph27.4 kmh 30.56 in1034.9 mb 0.00 in0.0 mm 0.00 in0.0 mm 0.00 in0.0 mm
11:08 AM 40.2°F4.6°C 32.0°F0.0°C 72% 7.3 mph NE11.7 kmh NE 17.0 mph27.4 kmh 30.56 in1034.9 mb 0.00 in0.0 mm 0.00 in0.0 mm 0.00 in0.0 mm
11:13 AM 40.1°F4.5°C 31.9°F-0.1°C 72% 4.8 mph NE7.7 kmh NE 15.0 mph24.1 kmh 30.56 in1034.9 mb 0.00 in0.0 mm 0.00 in0.0 mm 0.00 in0.0 mm
11:18 AM 40.0°F4.4°C 32.1°F0.1°C 73% 4.9 mph NE7.9 kmh NE 15.0 mph24.1 kmh 30.56 in1034.9 mb 0.00 in0.0 mm 0.00 in0.0 mm 0.00 in0.0 mm
11:23 AM 39.9°F4.4°C 32.0°F0.0°C 73% 6.1 mph ENE9.8 kmh ENE 15.0 mph24.1 kmh 30.55 in1034.5 mb 0.00 in0.0 mm 0.00 in0.0 mm 0.00 in0.0 mm
11:28 AM 39.8°F4.3°C 32.2°F0.1°C 74% 6.7 mph NE10.8 kmh NE 15.0 mph24.1 kmh 30.55 in1034.5 mb 0.00 in0.0 mm 0.00 in0.0 mm 0.00 in0.0 mm
11:33 AM 39.5°F4.2°C 32.3°F0.2°C 75% 6.7 mph NE10.8 kmh NE 14.0 mph22.5 kmh 30.55 in1034.5 mb 0.00 in0.0 mm 0.00 in0.0 mm 0.00 in0.0 mm
11:38 AM 39.6°F4.2°C 32.4°F0.2°C 75% 7.4 mph NE11.9 kmh NE 15.0 mph24.1 kmh 30.55 in1034.5 mb 0.00 in0.0 mm 0.00 in0.0 mm 0.00 in0.0 mm
11:43 AM 39.5°F4.2°C 32.6°F0.3°C 76% 7.2 mph NE11.6 kmh NE 15.0 mph24.1 kmh 30.54 in1034.2 mb 0.00 in0.0 mm 0.00 in0.0 mm 0.00 in0.0 mm
11:48 AM 39.6°F4.2°C 33.0°F0.6°C 77% 6.7 mph NE10.8 kmh NE 15.0 mph24.1 kmh 30.54 in1034.2 mb 0.00 in0.0 mm 0.00 in0.0 mm 0.00 in0.0 mm
11:53 AM 39.6°F4.2°C 33.0°F0.6°C 77% 5.3 mph NE8.5 kmh NE 15.0 mph24.1 kmh 30.54 in1034.2 mb 0.00 in0.0 mm 0.00 in0.0 mm 0.00 in0.0 mm
11:58 AM 39.5°F4.2°C 32.9°F0.5°C 77% 6.2 mph ENE10.0 kmh ENE 12.0 mph19.3 kmh 30.53 in1033.9 mb 0.00 in0.0 mm 0.00 in0.0 mm 0.00 in0.0 mm
12:03 PM 39.3°F4.1°C 33.0°F0.6°C 78% 5.7 mph NE9.2 kmh NE 13.0 mph20.9 kmh 30.53 in1033.9 mb 0.00 in0.0 mm 0.00 in0.0 mm 0.00 in0.0 mm
12:08 PM 39.2°F4.0°C 32.9°F0.5°C 78% 7.9 mph NE12.7 kmh NE 13.0 mph20.9 kmh 30.53 in1033.9 mb 0.00 in0.0 mm 0.00 in0.0 mm 0.00 in0.0 mm
12:13 PM 39.2°F4.0°C 33.3°F0.7°C 79% 5.4 mph NE8.7 kmh NE 13.0 mph20.9 kmh 30.53 in1033.9 mb 0.00 in0.0 mm 0.00 in0.0 mm 0.00 in0.0 mm
12:18 PM 39.4°F4.1°C 33.5°F0.8°C 79% 3.9 mph NE6.3 kmh NE 13.0 mph20.9 kmh 30.53 in1033.9 mb 0.00 in0.0 mm 0.00 in0.0 mm 0.00 in0.0 mm
12:23 PM 39.4°F4.1°C 33.5°F0.8°C 79% 3.4 mph NE5.5 kmh NE 11.0 mph17.7 kmh 30.53 in1033.9 mb 0.00 in0.0 mm 0.00 in0.0 mm 0.00 in0.0 mm
12:28 PM 39.5°F4.2°C 33.5°F0.8°C 79% 3.0 mph NE4.8 kmh NE 11.0 mph17.7 kmh 30.53 in1033.9 mb 0.00 in0.0 mm 0.00 in0.0 mm 0.00 in0.0 mm
12:33 PM 39.6°F4.2°C 33.6°F0.9°C 79% 4.3 mph ENE6.9 kmh ENE 9.0 mph14.5 kmh 30.53 in1033.9 mb 0.00 in0.0 mm 0.00 in0.0 mm 0.00 in0.0 mm
12:38 PM 39.3°F4.1°C 33.7°F0.9°C 80% 3.3 mph E5.3 kmh E 8.0 mph12.9 kmh 30.52 in1033.5 mb 0.00 in0.0 mm 0.00 in0.0 mm 0.00 in0.0 mm
12:42 PM 39.3°F4.1°C 33.7°F0.9°C 80% 4.2 mph ENE6.8 kmh ENE 8.0 mph12.9 kmh 30.52 in1033.5 mb 0.00 in0.0 mm 0.00 in0.0 mm 0.00 in0.0 mm
12:47 PM 39.3°F4.1°C 33.7°F0.9°C 80% 6.4 mph NE10.3 kmh NE 10.0 mph16.1 kmh 30.51 in1033.2 mb 0.00 in0.0 mm 0.00 in0.0 mm 0.00 in0.0 mm
12:52 PM 39.2°F4.0°C 33.5°F0.8°C 80% 6.1 mph ENE9.8 kmh ENE 10.0 mph16.1 kmh 30.51 in1033.2 mb 0.00 in0.0 mm 0.00 in0.0 mm 0.00 in0.0 mm
12:57 PM 39.2°F4.0°C 33.9°F1.1°C 81% 7.4 mph NE11.9 kmh NE 11.0 mph17.7 kmh 30.51 in1033.2 mb 0.00 in0.0 mm 0.00 in0.0 mm 0.00 in0.0 mm
01:02 PM 39.3°F4.1°C 34.0°F1.1°C 81% 2.7 mph ENE4.3 kmh ENE 11.0 mph17.7 kmh 30.51 in1033.2 mb 0.00 in0.0 mm 0.00 in0.0 mm 0.00 in0.0 mm
01:07 PM 39.5°F4.2°C 34.2°F1.2°C 81% 5.1 mph NE8.2 kmh NE 11.0 mph17.7 kmh 30.50 in1032.8 mb 0.00 in0.0 mm 0.00 in0.0 mm 0.00 in0.0 mm
01:12 PM 39.3°F4.1°C 34.0°F1.1°C 81% 6.1 mph NE9.8 kmh NE 11.0 mph17.7 kmh 30.50 in1032.8 mb 0.00 in0.0 mm 0.00 in0.0 mm 0.00 in0.0 mm
01:17 PM 39.3°F4.1°C 34.0°F1.1°C 81% 5.1 mph NE8.2 kmh NE 12.0 mph19.3 kmh 30.49 in1032.5 mb 0.00 in0.0 mm 0.00 in0.0 mm 0.00 in0.0 mm
01:22 PM 39.4°F4.1°C 34.1°F1.2°C 81% 4.8 mph ENE7.7 kmh ENE 12.0 mph19.3 kmh 30.49 in1032.5 mb 0.00 in0.0 mm 0.00 in0.0 mm 0.00 in0.0 mm
01:27 PM 39.5°F4.2°C 34.2°F1.2°C 81% 6.6 mph ENE10.6 kmh ENE 12.0 mph19.3 kmh 30.49 in1032.5 mb 0.00 in0.0 mm 0.00 in0.0 mm 0.00 in0.0 mm
01:32 PM 39.5°F4.2°C 34.2°F1.2°C 81% 6.6 mph ENE10.6 kmh ENE 11.0 mph17.7 kmh 30.49 in1032.5 mb 0.00 in0.0 mm 0.00 in0.0 mm 0.00 in0.0 mm
01:37 PM 39.7°F4.3°C 34.3°F1.3°C 81% 6.0 mph NE9.7 kmh NE 11.0 mph17.7 kmh 30.48 in1032.2 mb 0.00 in0.0 mm 0.00 in0.0 mm 0.00 in0.0 mm
01:42 PM 39.7°F4.3°C 34.4°F1.3°C 81% 5.2 mph NE8.4 kmh NE 11.0 mph17.7 kmh 30.48 in1032.2 mb 0.00 in0.0 mm 0.00 in0.0 mm 0.00 in0.0 mm
01:47 PM 40.0°F4.4°C 34.7°F1.5°C 81% 3.6 mph ENE5.8 kmh ENE 10.0 mph16.1 kmh 30.48 in1032.2 mb 0.00 in0.0 mm 0.00 in0.0 mm 0.00 in0.0 mm
01:52 PM 39.9°F4.4°C 34.6°F1.4°C 81% 3.7 mph NE6.0 kmh NE 10.0 mph16.1 kmh 30.47 in1031.8 mb 0.00 in0.0 mm 0.00 in0.0 mm 0.00 in0.0 mm
01:57 PM 40.1°F4.5°C 34.4°F1.3°C 80% 5.3 mph NE8.5 kmh NE 10.0 mph16.1 kmh 30.47 in1031.8 mb 0.00 in0.0 mm 0.00 in0.0 mm 0.00 in0.0 mm
02:02 PM 40.2°F4.6°C 34.8°F1.6°C 81% 4.7 mph NE7.6 kmh NE 12.0 mph19.3 kmh 30.47 in1031.8 mb 0.00 in0.0 mm 0.00 in0.0 mm 0.00 in0.0 mm
02:07 PM 40.3°F4.6°C 34.6°F1.4°C 80% 4.7 mph E7.6 kmh E 12.0 mph19.3 kmh 30.47 in1031.8 mb 0.00 in0.0 mm 0.00 in0.0 mm 0.00 in0.0 mm
02:12 PM 40.4°F4.7°C 34.7°F1.5°C 80% 4.9 mph NE7.9 kmh NE 12.0 mph19.3 kmh 30.46 in1031.5 mb 0.00 in0.0 mm 0.00 in0.0 mm 0.00 in0.0 mm
02:17 PM 40.6°F4.8°C 34.9°F1.6°C 80% 3.2 mph NE5.1 kmh NE 12.0 mph19.3 kmh 30.46 in1031.5 mb 0.00 in0.0 mm 0.00 in0.0 mm 0.00 in0.0 mm
02:22 PM 40.7°F4.8°C 35.0°F1.7°C 80% 5.0 mph ENE8.0 kmh ENE 10.0 mph16.1 kmh 30.46 in1031.5 mb 0.00 in0.0 mm 0.00 in0.0 mm 0.00 in0.0 mm
02:27 PM 41.0°F5.0°C 35.3°F1.8°C 80% 4.9 mph ENE7.9 kmh ENE 10.0 mph16.1 kmh 30.45 in1031.2 mb 0.00 in0.0 mm 0.00 in0.0 mm 0.00 in0.0 mm
02:32 PM 40.9°F4.9°C 35.2°F1.8°C 80% 5.7 mph ENE9.2 kmh ENE 11.0 mph17.7 kmh 30.46 in1031.5 mb 0.00 in0.0 mm 0.00 in0.0 mm 0.00 in0.0 mm
02:37 PM 40.7°F4.8°C 35.0°F1.7°C 80% 5.2 mph ENE8.4 kmh ENE 11.0 mph17.7 kmh 30.46 in1031.5 mb 0.00 in0.0 mm 0.00 in0.0 mm 0.00 in0.0 mm
02:42 PM 40.7°F4.8°C 35.0°F1.7°C 80% 6.1 mph E9.8 kmh E 11.0 mph17.7 kmh 30.45 in1031.2 mb 0.00 in0.0 mm 0.00 in0.0 mm 0.00 in0.0 mm
02:47 PM 40.8°F4.9°C 35.1°F1.7°C 80% 3.3 mph ENE5.3 kmh ENE 11.0 mph17.7 kmh 30.45 in1031.2 mb 0.00 in0.0 mm 0.00 in0.0 mm 0.00 in0.0 mm
02:52 PM 41.0°F5.0°C 35.0°F1.7°C 79% 4.4 mph E7.1 kmh E 10.0 mph16.1 kmh 30.45 in1031.2 mb 0.00 in0.0 mm 0.00 in0.0 mm 0.00 in0.0 mm
02:57 PM 41.1°F5.1°C 35.1°F1.7°C 79% 5.1 mph NE8.2 kmh NE 10.0 mph16.1 kmh 30.45 in1031.2 mb 0.00 in0.0 mm 0.00 in0.0 mm 0.00 in0.0 mm
03:02 PM 41.0°F5.0°C 35.0°F1.7°C 79% 4.3 mph NE6.9 kmh NE 10.0 mph16.1 kmh 30.45 in1031.2 mb 0.00 in0.0 mm 0.00 in0.0 mm 0.00 in0.0 mm
03:07 PM 41.3°F5.2°C 35.6°F2.0°C 80% 4.1 mph NE6.6 kmh NE 10.0 mph16.1 kmh 30.44 in1030.8 mb 0.00 in0.0 mm 0.00 in0.0 mm 0.00 in0.0 mm
03:12 PM 41.5°F5.3°C 35.5°F1.9°C 79% 6.2 mph NE10.0 kmh NE 10.0 mph16.1 kmh 30.44 in1030.8 mb 0.00 in0.0 mm 0.00 in0.0 mm 0.00 in0.0 mm
03:17 PM 41.5°F5.3°C 35.5°F1.9°C 79% 7.5 mph NE12.1 kmh NE 11.0 mph17.7 kmh 30.44 in1030.8 mb 0.00 in0.0 mm 0.00 in0.0 mm 0.00 in0.0 mm
03:22 PM 41.5°F5.3°C 35.5°F1.9°C 79% 3.8 mph ENE6.1 kmh ENE 12.0 mph19.3 kmh 30.44 in1030.8 mb 0.00 in0.0 mm 0.00 in0.0 mm 0.00 in0.0 mm
03:27 PM 41.6°F5.3°C 35.3°F1.8°C 78% 3.7 mph E6.0 kmh E 12.0 mph19.3 kmh 30.44 in1030.8 mb 0.00 in0.0 mm 0.00 in0.0 mm 0.00 in0.0 mm
03:32 PM 41.6°F5.3°C 35.3°F1.8°C 78% 4.0 mph NE6.4 kmh NE 12.0 mph19.3 kmh 30.44 in1030.8 mb 0.00 in0.0 mm 0.00 in0.0 mm 0.00 in0.0 mm
03:37 PM 41.7°F5.4°C 35.7°F2.1°C 79% 4.9 mph NE7.9 kmh NE 9.0 mph14.5 kmh 30.44 in1030.8 mb 0.00 in0.0 mm 0.00 in0.0 mm 0.00 in0.0 mm
03:42 PM 41.8°F5.4°C 35.4°F1.9°C 78% 3.8 mph NE6.1 kmh NE 9.0 mph14.5 kmh 30.44 in1030.8 mb 0.00 in0.0 mm 0.00 in0.0 mm 0.00 in0.0 mm
03:47 PM 41.7°F5.4°C 35.4°F1.9°C 78% 6.9 mph NE11.1 kmh NE 10.0 mph16.1 kmh 30.44 in1030.8 mb 0.00 in0.0 mm 0.00 in0.0 mm 0.00 in0.0 mm
03:52 PM 41.5°F5.3°C 35.2°F1.8°C 78% 5.9 mph NE9.5 kmh NE 10.0 mph16.1 kmh 30.43 in1030.5 mb 0.00 in0.0 mm 0.00 in0.0 mm 0.00 in0.0 mm
03:57 PM 41.6°F5.3°C 35.6°F2.0°C 79% 6.0 mph NE9.7 kmh NE 10.0 mph16.1 kmh 30.43 in1030.5 mb 0.00 in0.0 mm 0.00 in0.0 mm 0.00 in0.0 mm
04:02 PM 41.7°F5.4°C 35.7°F2.1°C 79% 4.5 mph NE7.2 kmh NE 10.0 mph16.1 kmh 30.44 in1030.8 mb 0.00 in0.0 mm 0.00 in0.0 mm 0.00 in0.0 mm
04:07 PM 41.8°F5.4°C 35.8°F2.1°C 79% 5.8 mph NE9.3 kmh NE 10.0 mph16.1 kmh 30.43 in1030.5 mb 0.00 in0.0 mm 0.00 in0.0 mm 0.00 in0.0 mm
04:12 PM 41.7°F5.4°C 35.7°F2.1°C 79% 4.4 mph ENE7.1 kmh ENE 10.0 mph16.1 kmh 30.43 in1030.5 mb 0.00 in0.0 mm 0.00 in0.0 mm 0.00 in0.0 mm
04:17 PM 41.8°F5.4°C 35.5°F1.9°C 78% 5.7 mph ENE9.2 kmh ENE 10.0 mph16.1 kmh 30.43 in1030.5 mb 0.00 in0.0 mm 0.00 in0.0 mm 0.00 in0.0 mm
04:22 PM 41.9°F5.5°C 35.9°F2.2°C 79% 3.6 mph NE5.8 kmh NE 10.0 mph16.1 kmh 30.43 in1030.5 mb 0.00 in0.0 mm 0.00 in0.0 mm 0.00 in0.0 mm
04:27 PM 42.2°F5.7°C 35.8°F2.1°C 78% 4.5 mph ENE7.2 kmh ENE 9.0 mph14.5 kmh 30.42 in1030.1 mb 0.00 in0.0 mm 0.00 in0.0 mm 0.00 in0.0 mm
04:32 PM 42.3°F5.7°C 36.0°F2.2°C 78% 4.3 mph NE6.9 kmh NE 9.0 mph14.5 kmh 30.42 in1030.1 mb 0.00 in0.0 mm 0.00 in0.0 mm 0.00 in0.0 mm
04:37 PM 42.2°F5.7°C 35.9°F2.2°C 78% 3.5 mph E5.6 kmh E 8.0 mph12.9 kmh 30.42 in1030.1 mb 0.00 in0.0 mm 0.00 in0.0 mm 0.00 in0.0 mm
04:42 PM 42.2°F5.7°C 35.6°F2.0°C 77% 6.0 mph ENE9.7 kmh ENE 10.0 mph16.1 kmh 30.42 in1030.1 mb 0.00 in0.0 mm 0.00 in0.0 mm 0.00 in0.0 mm
04:47 PM 42.1°F5.6°C 35.8°F2.1°C 78% 4.1 mph ENE6.6 kmh ENE 11.0 mph17.7 kmh 30.42 in1030.1 mb 0.00 in0.0 mm 0.00 in0.0 mm 0.00 in0.0 mm
04:52 PM 42.2°F5.7°C 35.9°F2.2°C 78% 4.8 mph E7.7 kmh E 11.0 mph17.7 kmh 30.42 in1030.1 mb 0.00 in0.0 mm 0.00 in0.0 mm 0.00 in0.0 mm
04:57 PM 42.2°F5.7°C 35.8°F2.1°C 78% 4.0 mph E6.4 kmh E 11.0 mph17.7 kmh 30.42 in1030.1 mb 0.00 in0.0 mm 0.00 in0.0 mm 0.00 in0.0 mm
05:02 PM 42.0°F5.6°C 35.6°F2.0°C 78% 3.7 mph ENE6.0 kmh ENE 11.0 mph17.7 kmh 30.42 in1030.1 mb 0.00 in0.0 mm 0.00 in0.0 mm 0.00 in0.0 mm
05:07 PM 42.1°F5.6°C 35.8°F2.1°C 78% 5.0 mph ENE8.0 kmh ENE 8.0 mph12.9 kmh 30.42 in1030.1 mb 0.00 in0.0 mm 0.00 in0.0 mm 0.00 in0.0 mm
05:12 PM 42.2°F5.7°C 35.9°F2.2°C 78% 4.9 mph ENE7.9 kmh ENE 8.0 mph12.9 kmh 30.42 in1030.1 mb 0.00 in0.0 mm 0.00 in0.0 mm 0.00 in0.0 mm
05:17 PM 42.1°F5.6°C 35.8°F2.1°C 78% 3.0 mph ENE4.8 kmh ENE 8.0 mph12.9 kmh 30.41 in1029.8 mb 0.00 in0.0 mm 0.00 in0.0 mm 0.00 in0.0 mm
05:22 PM 42.0°F5.6°C 35.7°F2.1°C 78% 5.5 mph E8.9 kmh E 8.0 mph12.9 kmh 30.41 in1029.8 mb 0.00 in0.0 mm 0.00 in0.0 mm 0.00 in0.0 mm
05:27 PM 42.1°F5.6°C 35.8°F2.1°C 78% 4.2 mph E6.8 kmh E 8.0 mph12.9 kmh 30.41 in1029.8 mb 0.00 in0.0 mm 0.00 in0.0 mm 0.00 in0.0 mm
05:32 PM 42.0°F5.6°C 36.0°F2.2°C 79% 3.7 mph E6.0 kmh E 8.0 mph12.9 kmh 30.41 in1029.8 mb 0.00 in0.0 mm 0.00 in0.0 mm 0.00 in0.0 mm
05:37 PM 41.9°F5.5°C 35.9°F2.2°C 79% 4.7 mph ENE7.6 kmh ENE 9.0 mph14.5 kmh 30.41 in1029.8 mb 0.00 in0.0 mm 0.00 in0.0 mm 0.00 in0.0 mm
05:42 PM 41.9°F5.5°C 35.9°F2.2°C 79% 2.7 mph E4.3 kmh E 9.0 mph14.5 kmh 30.41 in1029.8 mb 0.00 in0.0 mm 0.00 in0.0 mm 0.00 in0.0 mm
05:47 PM 42.0°F5.6°C 36.0°F2.2°C 79% 3.9 mph NE6.3 kmh NE 9.0 mph14.5 kmh 30.41 in1029.8 mb 0.00 in0.0 mm 0.00 in0.0 mm 0.00 in0.0 mm
05:52 PM 42.0°F5.6°C 36.0°F2.2°C 79% 4.0 mph NE6.4 kmh NE 9.0 mph14.5 kmh 30.41 in1029.8 mb 0.00 in0.0 mm 0.00 in0.0 mm 0.00 in0.0 mm
05:57 PM 42.0°F5.6°C 36.0°F2.2°C 79% 3.4 mph NE5.5 kmh NE 8.0 mph12.9 kmh 30.41 in1029.8 mb 0.00 in0.0 mm 0.00 in0.0 mm 0.00 in0.0 mm
06:02 PM 42.1°F5.6°C 36.1°F2.3°C 79% 3.7 mph NE6.0 kmh NE 8.0 mph12.9 kmh 30.41 in1029.8 mb 0.00 in0.0 mm 0.00 in0.0 mm 0.00 in0.0 mm
06:07 PM 42.1°F5.6°C 36.1°F2.3°C 79% 3.3 mph NE5.3 kmh NE 8.0 mph12.9 kmh 30.41 in1029.8 mb 0.00 in0.0 mm 0.00 in0.0 mm 0.00 in0.0 mm
06:12 PM 42.0°F5.6°C 35.7°F2.1°C 78% 4.9 mph ENE7.9 kmh ENE 9.0 mph14.5 kmh 30.40 in1029.5 mb 0.00 in0.0 mm 0.00 in0.0 mm 0.00 in0.0 mm
06:17 PM 42.0°F5.6°C 36.0°F2.2°C 79% 2.4 mph NE3.9 kmh NE 9.0 mph14.5 kmh 30.41 in1029.8 mb 0.00 in0.0 mm 0.00 in0.0 mm 0.00 in0.0 mm
06:22 PM 42.1°F5.6°C 36.1°F2.3°C 79% 1.9 mph NE3.1 kmh NE 9.0 mph14.5 kmh 30.41 in1029.8 mb 0.00 in0.0 mm 0.00 in0.0 mm 0.00 in0.0 mm
06:27 PM 42.0°F5.6°C 35.6°F2.0°C 78% 4.3 mph NE6.9 kmh NE 9.0 mph14.5 kmh 30.41 in1029.8 mb 0.00 in0.0 mm 0.00 in0.0 mm 0.00 in0.0 mm
06:32 PM 41.8°F5.4°C 35.4°F1.9°C 78% 4.8 mph NE7.7 kmh NE 8.0 mph12.9 kmh 30.41 in1029.8 mb 0.00 in0.0 mm 0.00 in0.0 mm 0.00 in0.0 mm
06:37 PM 41.7°F5.4°C 35.4°F1.9°C 78% 3.8 mph NE6.1 kmh NE 8.0 mph12.9 kmh 30.41 in1029.8 mb 0.00 in0.0 mm 0.00 in0.0 mm 0.00 in0.0 mm
06:41 PM 41.7°F5.4°C 35.4°F1.9°C 78% 3.9 mph NE6.3 kmh NE 8.0 mph12.9 kmh 30.41 in1029.8 mb 0.00 in0.0 mm 0.00 in0.0 mm 0.00 in0.0 mm
06:46 PM 41.7°F5.4°C 35.4°F1.9°C 78% 4.9 mph NE7.9 kmh NE 9.0 mph14.5 kmh 30.41 in1029.8 mb 0.00 in0.0 mm 0.00 in0.0 mm 0.00 in0.0 mm
06:51 PM 41.6°F5.3°C 35.3°F1.8°C 78% 5.4 mph NE8.7 kmh NE 9.0 mph14.5 kmh 30.41 in1029.8 mb 0.00 in0.0 mm 0.00 in0.0 mm 0.00 in0.0 mm
06:56 PM 41.6°F5.3°C 35.3°F1.8°C 78% 4.8 mph NE7.7 kmh NE 9.0 mph14.5 kmh 30.40 in1029.5 mb 0.00 in0.0 mm 0.00 in0.0 mm 0.00 in0.0 mm
07:01 PM 41.6°F5.3°C 35.3°F1.8°C 78% 3.9 mph NE6.3 kmh NE 9.0 mph14.5 kmh 30.40 in1029.5 mb 0.00 in0.0 mm 0.00 in0.0 mm 0.00 in0.0 mm
07:06 PM 41.6°F5.3°C 35.2°F1.8°C 78% 3.1 mph NE5.0 kmh NE 9.0 mph14.5 kmh 30.40 in1029.5 mb 0.00 in0.0 mm 0.00 in0.0 mm 0.00 in0.0 mm
07:11 PM 41.6°F5.3°C 35.0°F1.7°C 77% 5.9 mph NE9.5 kmh NE 9.0 mph14.5 kmh 30.40 in1029.5 mb 0.00 in0.0 mm 0.00 in0.0 mm 0.00 in0.0 mm
07:16 PM 41.6°F5.3°C 35.3°F1.8°C 78% 3.4 mph ENE5.5 kmh ENE 9.0 mph14.5 kmh 30.40 in1029.5 mb 0.00 in0.0 mm 0.00 in0.0 mm 0.00 in0.0 mm
07:21 PM 41.5°F5.3°C 34.9°F1.6°C 77% 5.6 mph NE9.0 kmh NE 10.0 mph16.1 kmh 30.40 in1029.5 mb 0.00 in0.0 mm 0.00 in0.0 mm 0.00 in0.0 mm
07:26 PM 41.5°F5.3°C 34.9°F1.6°C 77% 4.8 mph NE7.7 kmh NE 10.0 mph16.1 kmh 30.40 in1029.5 mb 0.00 in0.0 mm 0.00 in0.0 mm 0.00 in0.0 mm
07:31 PM 41.5°F5.3°C 34.5°F1.4°C 76% 2.7 mph NE4.3 kmh NE 10.0 mph16.1 kmh 30.40 in1029.5 mb 0.00 in0.0 mm 0.00 in0.0 mm 0.00 in0.0 mm
07:36 PM 41.4°F5.2°C 34.5°F1.4°C 76% 3.6 mph NE5.8 kmh NE 10.0 mph16.1 kmh 30.40 in1029.5 mb 0.00 in0.0 mm 0.00 in0.0 mm 0.00 in0.0 mm
07:41 PM 41.3°F5.2°C 34.4°F1.3°C 76% 5.4 mph NE8.7 kmh NE 10.0 mph16.1 kmh 30.40 in1029.5 mb 0.00 in0.0 mm 0.00 in0.0 mm 0.00 in0.0 mm
07:46 PM 41.2°F5.1°C 34.2°F1.2°C 76% 5.4 mph NE8.7 kmh NE 10.0 mph16.1 kmh 30.41 in1029.8 mb 0.00 in0.0 mm 0.00 in0.0 mm 0.00 in0.0 mm
07:51 PM 41.2°F5.1°C 34.2°F1.2°C 76% 3.1 mph NE5.0 kmh NE 10.0 mph16.1 kmh 30.41 in1029.8 mb 0.00 in0.0 mm 0.00 in0.0 mm 0.00 in0.0 mm
07:56 PM 41.1°F5.1°C 33.8°F1.0°C 75% 4.6 mph NE7.4 kmh NE 10.0 mph16.1 kmh 30.41 in1029.8 mb 0.00 in0.0 mm 0.00 in0.0 mm 0.00 in0.0 mm
08:01 PM 41.1°F5.1°C 34.2°F1.2°C 76% 3.2 mph NNE5.1 kmh NNE 10.0 mph16.1 kmh 30.41 in1029.8 mb 0.00 in0.0 mm 0.00 in0.0 mm 0.00 in0.0 mm
08:06 PM 41.0°F5.0°C 34.1°F1.2°C 76% 3.4 mph NNE5.5 kmh NNE 8.0 mph12.9 kmh 30.41 in1029.8 mb 0.00 in0.0 mm 0.00 in0.0 mm 0.00 in0.0 mm
08:11 PM 40.7°F4.8°C 34.4°F1.3°C 78% 3.6 mph NE5.8 kmh NE 8.0 mph12.9 kmh 30.41 in1029.8 mb 0.00 in0.0 mm 0.00 in0.0 mm 0.00 in0.0 mm
08:16 PM 40.5°F4.7°C 34.2°F1.2°C 78% 5.8 mph NE9.3 kmh NE 8.0 mph12.9 kmh 30.41 in1029.8 mb 0.00 in0.0 mm 0.00 in0.0 mm 0.00 in0.0 mm
08:21 PM 40.3°F4.6°C 34.3°F1.3°C 79% 4.5 mph NE7.2 kmh NE 8.0 mph12.9 kmh 30.41 in1029.8 mb 0.00 in0.0 mm 0.00 in0.0 mm 0.00 in0.0 mm
08:26 PM 40.1°F4.5°C 34.4°F1.3°C 80% 4.5 mph NE7.2 kmh NE 8.0 mph12.9 kmh 30.41 in1029.8 mb 0.00 in0.0 mm 0.00 in0.0 mm 0.00 in0.0 mm
08:31 PM 39.7°F4.3°C 34.7°F1.5°C 82% 4.1 mph NE6.6 kmh NE 9.0 mph14.5 kmh 30.41 in1029.8 mb 0.00 in0.0 mm 0.00 in0.0 mm 0.00 in0.0 mm
08:36 PM 39.5°F4.2°C 34.8°F1.6°C 83% 5.2 mph NE8.4 kmh NE 9.0 mph14.5 kmh 30.40 in1029.5 mb 0.00 in0.0 mm 0.00 in0.0 mm 0.00 in0.0 mm
08:41 PM 39.3°F4.1°C 34.6°F1.4°C 83% 4.8 mph NE7.7 kmh NE 10.0 mph16.1 kmh 30.40 in1029.5 mb 0.00 in0.0 mm 0.00 in0.0 mm 0.00 in0.0 mm
08:46 PM 39.3°F4.1°C 34.9°F1.6°C 84% 5.1 mph NE8.2 kmh NE 10.0 mph16.1 kmh 30.40 in1029.5 mb 0.00 in0.0 mm 0.00 in0.0 mm 0.00 in0.0 mm
08:51 PM 39.2°F4.0°C 35.1°F1.7°C 85% 4.1 mph NE6.6 kmh NE 10.0 mph16.1 kmh 30.39 in1029.1 mb 0.00 in0.0 mm 0.00 in0.0 mm 0.00 in0.0 mm
08:56 PM 39.1°F3.9°C 35.0°F1.7°C 85% 5.6 mph NE9.0 kmh NE 10.0 mph16.1 kmh 30.40 in1029.5 mb 0.00 in0.0 mm 0.00 in0.0 mm 0.00 in0.0 mm
09:01 PM 38.9°F3.8°C 35.0°F1.7°C 86% 2.2 mph NNE3.5 kmh NNE 10.0 mph16.1 kmh 30.40 in1029.5 mb 0.00 in0.0 mm 0.00 in0.0 mm 0.00 in0.0 mm
09:06 PM 38.8°F3.8°C 35.2°F1.8°C 87% 5.7 mph NE9.2 kmh NE 10.0 mph16.1 kmh 30.40 in1029.5 mb 0.00 in0.0 mm 0.00 in0.0 mm 0.00 in0.0 mm
09:11 PM 38.7°F3.7°C 35.4°F1.9°C 88% 2.9 mph NE4.7 kmh NE 10.0 mph16.1 kmh 30.40 in1029.5 mb 0.00 in0.0 mm 0.00 in0.0 mm 0.00 in0.0 mm
09:16 PM 38.6°F3.7°C 35.3°F1.8°C 88% 5.2 mph NE8.4 kmh NE 10.0 mph16.1 kmh 30.40 in1029.5 mb 0.00 in0.0 mm 0.00 in0.0 mm 0.00 in0.0 mm
09:21 PM 38.6°F3.7°C 35.6°F2.0°C 89% 4.5 mph NE7.2 kmh NE 10.0 mph16.1 kmh 30.40 in1029.5 mb 0.00 in0.0 mm 0.00 in0.0 mm 0.00 in0.0 mm
09:26 PM 38.5°F3.6°C 35.5°F1.9°C 89% 4.6 mph NE7.4 kmh NE 10.0 mph16.1 kmh 30.40 in1029.5 mb 0.00 in0.0 mm 0.00 in0.0 mm 0.00 in0.0 mm
09:31 PM 38.4°F3.6°C 35.4°F1.9°C 89% 5.8 mph NE9.3 kmh NE 10.0 mph16.1 kmh 30.39 in1029.1 mb 0.00 in0.0 mm 0.00 in0.0 mm 0.00 in0.0 mm
09:36 PM 38.5°F3.6°C 35.8°F2.1°C 90% 2.9 mph NE4.7 kmh NE 10.0 mph16.1 kmh 30.39 in1029.1 mb 0.00 in0.0 mm 0.00 in0.0 mm 0.00 in0.0 mm
09:41 PM 38.5°F3.6°C 35.8°F2.1°C 90% 3.8 mph NE6.1 kmh NE 8.0 mph12.9 kmh 30.40 in1029.5 mb 0.00 in0.0 mm 0.00 in0.0 mm 0.00 in0.0 mm
09:46 PM 38.4°F3.6°C 35.7°F2.1°C 90% 4.6 mph NE7.4 kmh NE 9.0 mph14.5 kmh 30.40 in1029.5 mb 0.00 in0.0 mm 0.00 in0.0 mm 0.00 in0.0 mm
09:51 PM 38.3°F3.5°C 35.9°F2.2°C 91% 4.3 mph NE6.9 kmh NE 11.0 mph17.7 kmh 30.39 in1029.1 mb 0.00 in0.0 mm 0.00 in0.0 mm 0.00 in0.0 mm
09:56 PM 38.2°F3.4°C 35.8°F2.1°C 91% 3.5 mph NE5.6 kmh NE 11.0 mph17.7 kmh 30.39 in1029.1 mb 0.00 in0.0 mm 0.00 in0.0 mm 0.00 in0.0 mm
10:01 PM 38.1°F3.4°C 35.7°F2.1°C 91% 4.1 mph NE6.6 kmh NE 12.0 mph19.3 kmh 30.39 in1029.1 mb 0.00 in0.0 mm 0.00 in0.0 mm 0.00 in0.0 mm
10:06 PM 37.9°F3.3°C 35.5°F1.9°C 91% 5.4 mph NE8.7 kmh NE 12.0 mph19.3 kmh 30.39 in1029.1 mb 0.00 in0.0 mm 0.00 in0.0 mm 0.00 in0.0 mm
10:11 PM 37.7°F3.2°C 35.5°F1.9°C 92% 5.7 mph NE9.2 kmh NE 12.0 mph19.3 kmh 30.39 in1029.1 mb 0.00 in0.0 mm 0.00 in0.0 mm 0.00 in0.0 mm
10:16 PM 37.7°F3.2°C 35.5°F1.9°C 92% 5.0 mph NE8.0 kmh NE 12.0 mph19.3 kmh 30.39 in1029.1 mb 0.00 in0.0 mm 0.00 in0.0 mm 0.00 in0.0 mm
10:21 PM 37.5°F3.1°C 35.3°F1.8°C 92% 6.5 mph NE10.5 kmh NE 12.0 mph19.3 kmh 30.39 in1029.1 mb 0.00 in0.0 mm 0.00 in0.0 mm 0.00 in0.0 mm
10:26 PM 37.4°F3.0°C 35.2°F1.8°C 92% 4.7 mph NE7.6 kmh NE 11.0 mph17.7 kmh 30.39 in1029.1 mb 0.00 in0.0 mm 0.00 in0.0 mm 0.00 in0.0 mm
10:31 PM 37.4°F3.0°C 35.5°F1.9°C 93% 3.3 mph NE5.3 kmh NE 10.0 mph16.1 kmh 30.39 in1029.1 mb 0.00 in0.0 mm 0.00 in0.0 mm 0.00 in0.0 mm
10:36 PM 37.3°F2.9°C 35.5°F1.9°C 93% 3.3 mph NE5.3 kmh NE 10.0 mph16.1 kmh 30.38 in1028.8 mb 0.00 in0.0 mm 0.00 in0.0 mm 0.00 in0.0 mm
10:41 PM 37.3°F2.9°C 35.4°F1.9°C 93% 1.9 mph NE3.1 kmh NE 8.0 mph12.9 kmh 30.38 in1028.8 mb 0.00 in0.0 mm 0.00 in0.0 mm 0.00 in0.0 mm
10:46 PM 37.3°F2.9°C 35.4°F1.9°C 93% 4.5 mph NE7.2 kmh NE 8.0 mph12.9 kmh 30.38 in1028.8 mb 0.00 in0.0 mm 0.00 in0.0 mm 0.00 in0.0 mm
10:51 PM 37.3°F2.9°C 35.4°F1.9°C 93% 4.8 mph NE7.7 kmh NE 8.0 mph12.9 kmh 30.38 in1028.8 mb 0.00 in0.0 mm 0.00 in0.0 mm 0.00 in0.0 mm
10:56 PM 37.2°F2.9°C 35.6°F2.0°C 94% 3.2 mph NE5.1 kmh NE 8.0 mph12.9 kmh 30.38 in1028.8 mb 0.00 in0.0 mm 0.00 in0.0 mm 0.00 in0.0 mm
11:01 PM 37.2°F2.9°C 35.6°F2.0°C 94% 2.6 mph ENE4.2 kmh ENE 8.0 mph12.9 kmh 30.38 in1028.8 mb 0.00 in0.0 mm 0.00 in0.0 mm 0.00 in0.0 mm
11:06 PM 37.2°F2.9°C 35.6°F2.0°C 94% 2.4 mph NE3.9 kmh NE 8.0 mph12.9 kmh 30.38 in1028.8 mb 0.00 in0.0 mm 0.00 in0.0 mm 0.00 in0.0 mm
11:11 PM 37.2°F2.9°C 35.6°F2.0°C 94% 3.1 mph NE5.0 kmh NE 6.0 mph9.7 kmh 30.38 in1028.8 mb 0.01 in0.3 mm 0.12 in3.0 mm 0.01 in0.3 mm
11:16 PM 37.1°F2.8°C 35.5°F1.9°C 94% 3.5 mph NE5.6 kmh NE 6.0 mph9.7 kmh 30.37 in1028.4 mb 0.01 in0.3 mm 0.00 in0.0 mm 0.01 in0.3 mm
11:21 PM 37.0°F2.8°C 35.4°F1.9°C 94% 3.3 mph NE5.3 kmh NE 9.0 mph14.5 kmh 30.37 in1028.4 mb 0.01 in0.3 mm 0.00 in0.0 mm 0.01 in0.3 mm
11:26 PM 37.0°F2.8°C 35.4°F1.9°C 94% 4.8 mph NE7.7 kmh NE 9.0 mph14.5 kmh 30.37 in1028.4 mb 0.01 in0.3 mm 0.00 in0.0 mm 0.01 in0.3 mm
11:31 PM 37.0°F2.8°C 35.7°F2.1°C 95% 3.8 mph NE6.1 kmh NE 9.0 mph14.5 kmh 30.37 in1028.4 mb 0.01 in0.3 mm 0.00 in0.0 mm 0.01 in0.3 mm
11:36 PM 36.9°F2.7°C 35.6°F2.0°C 95% 4.1 mph NE6.6 kmh NE 9.0 mph14.5 kmh 30.37 in1028.4 mb 0.01 in0.3 mm 0.00 in0.0 mm 0.01 in0.3 mm
11:40 PM 37.0°F2.8°C 35.7°F2.1°C 95% 3.3 mph NE5.3 kmh NE 8.0 mph12.9 kmh 30.36 in1028.1 mb 0.01 in0.3 mm 0.00 in0.0 mm 0.01 in0.3 mm
11:45 PM 36.9°F2.7°C 35.6°F2.0°C 95% 2.5 mph NE4.0 kmh NE 8.0 mph12.9 kmh 30.36 in1028.1 mb 0.02 in0.5 mm 0.12 in3.0 mm 0.02 in0.5 mm
11:50 PM 36.9°F2.7°C 35.6°F2.0°C 95% 3.5 mph NE5.6 kmh NE 7.0 mph11.3 kmh 30.36 in1028.1 mb 0.03 in0.8 mm 0.12 in3.0 mm 0.03 in0.8 mm
11:55 PM 37.0°F2.8°C 35.7°F2.1°C 95% 1.8 mph NE2.9 kmh NE 7.0 mph11.3 kmh 30.36 in1028.1 mb 0.03 in0.8 mm 0.00 in0.0 mm 0.03 in0.8 mm